Norman, Arkansas
Current Conditions -  °F | °C
As of 6:53 PM on Sunday 23 Nov 2014 (Local Time) from KMWT Reporting Station
Clear Clear  
Wind Chill: 64°   Ceiling: Unl
Heat Index: 64°   Visibility: 10mi
Dew Point: 57°   Wind: 0mph
Humidity: 78%   Direction: NA
Pressure: 29.37"   Gusts: NA
Location:  34.46°N, 93.68°W
Report Text: KMWT 240053Z AUTO 00000KT 10SM CLR 18/14 A2937 RMK AO2 SLP942 T01780139
Loading
Personal Weather Stations






























Interactive Weather Map New forecast layout! Learn more

10-Day Weather Forecast

Advertisements
Track Severe Weather on mobile